Time;durP1;ratioP1;P1;durP2;ratioP2;P2;SDS_P1;SDS_P2;PMS_P1;PMS_P2;Temp;Humidity;BMP_temperature;BMP_pressure;BME280_temperature;BME280_humidity;BME280_pressure;Samples;Min_cycle;Max_cycle;Signal;HPM_P1;HPM_P2
2022/01/27 00:05:07;;;;;;;19.77;9.20;;;4.10;99.90;;;;;;9963370;29;20210;-79
2022/01/27 00:10:48;;;;;;;25.20;10.07;;;4.20;99.90;;;;;;9991183;29;20211;-79
2022/01/27 00:16:15;;;;;;;24.30;9.97;;;4.20;99.90;;;;;;10007039;29;20277;-80
2022/01/27 00:21:37;;;;;;;27.27;10.60;;;4.20;99.90;;;;;;10007296;29;20258;-79
2022/01/27 00:27:00;;;;;;;26.63;11.53;;;4.20;99.90;;;;;;9994846;29;20228;-79
2022/01/27 00:32:22;;;;;;;28.47;10.60;;;4.20;99.90;;;;;;10006993;29;20214;-79
2022/01/27 00:37:44;;;;;;;29.83;12.33;;;4.20;99.90;;;;;;9981593;29;20221;-79
2022/01/27 00:43:06;;;;;;;32.10;12.47;;;4.20;99.90;;;;;;10006010;29;20244;-80
2022/01/27 00:48:28;;;;;;;29.83;11.80;;;4.20;99.90;;;;;;9991303;29;20259;-80
2022/01/27 00:54:04;;;;;;;26.60;10.77;;;4.20;99.90;;;;;;9956440;29;20206;-79
2022/01/27 01:05:33;;;;;;;36.87;10.73;;;4.30;99.90;;;;;;9991977;29;20214;-79
2022/01/27 01:33:11;;;;;;;23.13;10.10;;;4.20;99.90;;;;;;10004837;29;20264;-79
2022/01/27 01:38:32;;;;;;;23.27;9.87;;;4.20;99.90;;;;;;9991663;29;20217;-79
2022/01/27 01:43:54;;;;;;;22.50;9.63;;;4.20;99.90;;;;;;10004249;29;20221;-79
2022/01/27 01:49:16;;;;;;;24.30;10.10;;;4.10;99.90;;;;;;9992490;29;20225;-79
2022/01/27 01:54:38;;;;;;;21.93;10.03;;;4.20;99.90;;;;;;9954063;29;20271;-79
2022/01/27 02:00:00;;;;;;;25.57;11.17;;;4.20;99.90;;;;;;9953484;29;20442;-79
2022/01/27 02:05:39;;;;;;;24.00;10.30;;;4.20;99.90;;;;;;10003997;29;20450;-79
2022/01/27 02:22:09;;;;;;;22.50;10.87;;;4.30;99.90;;;;;;10003703;29;20202;-79
2022/01/27 02:27:31;;;;;;;20.10;10.37;;;4.30;99.90;;;;;;10003488;29;20390;-79
2022/01/27 02:32:54;;;;;;;20.07;9.70;;;4.30;99.90;;;;;;9990683;29;20205;-79
2022/01/27 02:38:17;;;;;;;22.57;10.87;;;4.30;99.90;;;;;;9990226;29;20426;-79
2022/01/27 02:43:39;;;;;;;21.17;11.13;;;4.30;99.90;;;;;;10003403;29;20514;-79
2022/01/27 02:49:01;;;;;;;22.47;11.57;;;4.30;99.90;;;;;;10003195;29;20244;-79
2022/01/27 02:54:25;;;;;;;25.17;13.37;;;4.30;99.90;;;;;;9989935;29;20258;-80
2022/01/27 02:59:52;;;;;;;20.83;11.80;;;4.20;99.90;;;;;;9990617;29;20201;-79
2022/01/27 03:05:15;;;;;;;22.57;12.13;;;4.30;99.90;;;;;;9991971;29;20221;-79
2022/01/27 03:10:48;;;;;;;20.00;11.20;;;4.30;99.90;;;;;;9985964;29;20205;-79
2022/01/27 03:16:10;;;;;;;18.10;11.20;;;4.30;99.90;;;;;;9989866;29;20220;-79
2022/01/27 03:21:32;;;;;;;21.23;10.37;;;4.30;99.90;;;;;;9976889;29;20214;-79
2022/01/27 03:26:55;;;;;;;17.67;10.33;;;4.30;99.90;;;;;;10001797;29;20314;-79
2022/01/27 03:32:17;;;;;;;19.93;10.13;;;4.30;99.90;;;;;;10002358;29;20201;-79
2022/01/27 03:37:39;;;;;;;15.53;9.33;;;4.30;99.90;;;;;;9995259;29;20293;-79
2022/01/27 03:43:06;;;;;;;18.63;10.47;;;4.20;99.90;;;;;;10009423;29;20319;-79
2022/01/27 03:48:28;;;;;;;15.57;8.93;;;4.20;99.90;;;;;;10008373;29;20232;-79
2022/01/27 03:53:50;;;;;;;19.20;10.37;;;4.20;99.90;;;;;;9976346;29;20508;-80
2022/01/27 03:59:12;;;;;;;19.23;10.90;;;4.20;99.90;;;;;;9981271;29;20214;-79
2022/01/27 04:04:35;;;;;;;27.13;13.00;;;4.20;99.90;;;;;;9987826;29;20208;-80
2022/01/27 04:09:56;;;;;;;23.47;13.27;;;4.20;99.90;;;;;;10005669;29;20457;-79
2022/01/27 04:15:19;;;;;;;28.73;15.17;;;4.20;99.90;;;;;;10020882;29;20202;-79
2022/01/27 04:20:42;;;;;;;28.37;14.87;;;4.10;99.90;;;;;;10007503;29;20289;-80
2022/01/27 04:26:06;;;;;;;35.70;16.97;;;4.10;99.90;;;;;;10007129;29;20219;-80
2022/01/27 04:31:29;;;;;;;41.77;21.37;;;4.10;99.90;;;;;;9994920;29;20265;-79
2022/01/27 04:36:54;;;;;;;35.80;16.70;;;4.10;99.90;;;;;;10006833;29;20212;-79
2022/01/27 04:42:27;;;;;;;33.90;14.83;;;4.10;99.90;;;;;;9994080;29;20236;-79
2022/01/27 04:48:09;;;;;;;35.97;16.63;;;4.10;99.90;;;;;;9995851;29;20462;-80
2022/01/27 04:53:36;;;;;;;26.93;15.33;;;4.10;99.90;;;;;;9963182;29;20396;-79
2022/01/27 04:59:21;;;;;;;30.27;15.27;;;4.10;99.90;;;;;;9998962;29;20292;-79
2022/01/27 05:04:46;;;;;;;27.13;14.57;;;4.10;99.90;;;;;;10024185;29;20212;-80
2022/01/27 05:10:14;;;;;;;25.97;14.43;;;4.00;99.90;;;;;;10000560;29;20527;-80
2022/01/27 05:15:44;;;;;;;27.07;13.77;;;4.00;99.90;;;;;;9992808;29;20250;-80
2022/01/27 05:21:08;;;;;;;35.80;16.43;;;3.90;99.90;;;;;;9992935;29;20216;-80
2022/01/27 05:26:30;;;;;;;35.20;17.17;;;4.00;99.90;;;;;;10005246;29;20475;-80
2022/01/27 05:31:53;;;;;;;34.17;17.80;;;4.00;99.90;;;;;;9992488;29;20228;-80
2022/01/27 05:37:14;;;;;;;34.67;17.80;;;3.90;99.90;;;;;;10004766;29;20226;-79
2022/01/27 05:42:36;;;;;;;38.90;18.53;;;3.90;99.90;;;;;;10005895;29;20259;-79
2022/01/27 05:47:58;;;;;;;33.20;17.20;;;4.00;99.90;;;;;;10004695;29;20236;-79
2022/01/27 05:53:20;;;;;;;30.60;16.27;;;3.90;99.90;;;;;;10004398;29;20200;-79
2022/01/27 05:58:43;;;;;;;31.37;16.70;;;3.90;99.90;;;;;;10003436;29;20204;-79
2022/01/27 06:04:05;;;;;;;34.80;16.90;;;3.90;99.90;;;;;;10004339;29;20215;-79
2022/01/27 06:09:26;;;;;;;34.93;19.07;;;3.90;99.90;;;;;;9993396;29;20485;-80
2022/01/27 06:14:49;;;;;;;39.37;19.77;;;3.80;99.90;;;;;;9990884;29;20204;-80
2022/01/27 06:20:21;;;;;;;34.50;18.33;;;3.80;99.90;;;;;;10003108;29;20212;-79
2022/01/27 06:25:43;;;;;;;36.00;17.87;;;3.80;99.90;;;;;;10004180;29;20500;-79
2022/01/27 06:31:05;;;;;;;38.93;19.67;;;3.80;99.90;;;;;;9990662;29;20218;-79
2022/01/27 06:36:27;;;;;;;37.87;17.93;;;3.70;99.90;;;;;;9990226;29;20317;-79
2022/01/27 06:41:50;;;;;;;34.17;16.47;;;3.80;99.90;;;;;;9990072;29;20269;-79
2022/01/27 06:47:12;;;;;;;36.70;17.93;;;3.80;99.90;;;;;;10005144;29;20435;-79
2022/01/27 06:52:34;;;;;;;30.50;16.07;;;3.80;99.90;;;;;;9989822;29;20211;-79
2022/01/27 06:57:56;;;;;;;30.17;16.23;;;3.70;99.90;;;;;;9989473;29;20201;-79
2022/01/27 07:03:17;;;;;;;26.73;14.33;;;3.80;99.90;;;;;;10001678;29;20260;-79
2022/01/27 07:08:39;;;;;;;30.73;14.83;;;3.70;99.90;;;;;;10004715;29;20306;-78
2022/01/27 07:14:02;;;;;;;24.70;14.27;;;3.70;99.90;;;;;;10010934;29;20203;-79
2022/01/27 07:19:25;;;;;;;21.07;10.87;;;3.70;99.90;;;;;;10022173;29;20205;-79
2022/01/27 07:24:46;;;;;;;24.77;11.97;;;3.70;99.90;;;;;;9996163;29;20271;-79
2022/01/27 07:30:09;;;;;;;21.30;11.27;;;3.60;99.90;;;;;;9996362;29;20510;-78
2022/01/27 07:35:31;;;;;;;10.03;6.53;;;3.60;99.90;;;;;;10009748;29;20204;-79
2022/01/27 07:40:53;;;;;;;16.20;7.70;;;3.60;99.90;;;;;;9983394;29;20323;-79
2022/01/27 07:46:16;;;;;;;10.03;5.90;;;3.50;99.90;;;;;;10008277;29;20254;-78
2022/01/27 07:51:37;;;;;;;10.53;5.93;;;3.50;99.90;;;;;;9982652;29;20212;-79
2022/01/27 07:56:59;;;;;;;9.67;5.57;;;3.50;99.90;;;;;;10008385;29;20208;-79
2022/01/27 08:02:22;;;;;;;13.37;6.63;;;3.50;99.90;;;;;;10009891;29;20205;-79
2022/01/27 08:07:45;;;;;;;6.97;4.07;;;3.40;99.90;;;;;;9997823;29;20227;-79
2022/01/27 08:13:09;;;;;;;6.83;4.70;;;3.40;99.90;;;;;;9994585;29;20207;-79
2022/01/27 08:18:31;;;;;;;6.80;4.17;;;3.30;99.90;;;;;;10006985;29;20507;-79
2022/01/27 08:23:54;;;;;;;10.60;5.90;;;3.30;99.90;;;;;;10006454;29;20217;-79
2022/01/27 08:29:24;;;;;;;16.70;12.27;;;3.30;99.90;;;;;;9970094;29;20481;-78
2022/01/27 08:34:53;;;;;;;7.50;5.40;;;3.30;99.90;;;;;;9952479;29;20220;-78
2022/01/27 08:40:16;;;;;;;5.40;3.70;;;3.30;99.90;;;;;;10001907;29;20261;-78
2022/01/27 08:45:54;;;;;;;8.73;5.13;;;3.30;99.90;;;;;;9998563;29;20211;-78
2022/01/27 08:51:21;;;;;;;7.20;4.80;;;3.30;99.90;;;;;;9977462;29;20210;-79
2022/01/27 08:56:43;;;;;;;12.07;6.50;;;3.20;99.90;;;;;;10008201;29;20200;-85
2022/01/27 09:02:05;;;;;;;14.80;7.53;;;3.30;99.90;;;;;;9995119;29;20547;-80
2022/01/27 09:07:28;;;;;;;12.07;5.63;;;3.30;99.90;;;;;;9977097;29;20263;-80
2022/01/27 09:12:50;;;;;;;9.67;4.13;;;3.40;99.90;;;;;;10000329;29;20266;-79
2022/01/27 09:18:14;;;;;;;6.50;4.30;;;3.40;99.90;;;;;;10000850;29;20211;-81
2022/01/27 09:23:36;;;;;;;22.60;13.20;;;3.40;99.90;;;;;;10001017;29;20224;-82
2022/01/27 09:28:58;;;;;;;11.90;7.83;;;3.40;99.90;;;;;;9938066;29;20395;-79
2022/01/27 09:34:20;;;;;;;13.17;8.37;;;3.40;99.90;;;;;;10002472;29;20208;-81
2022/01/27 09:39:43;;;;;;;6.23;4.53;;;3.40;99.90;;;;;;10001875;29;20617;-79
2022/01/27 09:45:08;;;;;;;11.63;8.63;;;3.50;99.90;;;;;;10018779;29;20227;-81
2022/01/27 09:51:21;;;;;;;6.77;4.70;;;3.40;99.90;;;;;;10015774;29;20600;-78
2022/01/27 09:56:32;;;;;;;6.30;4.93;;;3.50;99.90;;;;;;10015022;29;20554;-78
2022/01/27 10:02:07;;;;;;;7.33;4.53;;;3.50;99.90;;;;;;10000462;29;20227;-80
2022/01/27 10:07:38;;;;;;;9.03;6.60;;;3.60;99.90;;;;;;10013857;29;20244;-78
2022/01/27 10:13:04;;;;;;;7.27;4.67;;;3.60;99.90;;;;;;9993105;29;20287;-86
2022/01/27 10:18:35;;;;;;;7.70;3.37;;;3.60;99.90;;;;;;10002972;29;20566;-81
2022/01/27 10:24:14;;;;;;;6.23;4.40;;;3.70;99.90;;;;;;9973144;29;20197;-80
2022/01/27 10:29:49;;;;;;;4.27;2.97;;;3.70;99.90;;;;;;9984397;29;20243;-79
2022/01/27 10:35:16;;;;;;;4.87;3.60;;;3.80;99.90;;;;;;9985655;29;20244;-80
2022/01/27 10:40:43;;;;;;;9.80;6.00;;;3.80;99.90;;;;;;9991550;29;20260;-81
2022/01/27 10:46:26;;;;;;;4.23;3.83;;;3.90;99.90;;;;;;9972086;29;20343;-79
2022/01/27 10:51:53;;;;;;;37.03;19.17;;;4.00;99.90;;;;;;9935258;29;20270;-78
2022/01/27 10:57:21;;;;;;;6.17;4.57;;;3.90;99.90;;;;;;9963082;29;20504;-79
2022/01/27 11:02:50;;;;;;;4.30;3.00;;;4.10;99.90;;;;;;9964943;29;20205;-79
2022/01/27 11:08:16;;;;;;;4.67;3.10;;;4.10;99.90;;;;;;9995128;29;20246;-78
2022/01/27 11:13:39;;;;;;;3.63;2.80;;;4.10;99.90;;;;;;10004100;29;20240;-79
2022/01/27 11:19:18;;;;;;;3.83;2.27;;;4.20;99.90;;;;;;9974406;29;20265;-78
2022/01/27 11:30:44;;;;;;;2.13;1.50;;;4.40;99.90;;;;;;9990821;29;20616;-81
2022/01/27 11:36:19;;;;;;;2.87;2.57;;;4.50;99.90;;;;;;10036337;29;20280;-80
2022/01/27 11:41:48;;;;;;;4.30;2.67;;;4.50;99.90;;;;;;9982867;29;20568;-80
2022/01/27 11:47:15;;;;;;;3.27;2.20;;;4.50;99.90;;;;;;9959664;29;20803;-78
2022/01/27 11:52:54;;;;;;;1.67;1.57;;;4.50;99.90;;;;;;9958698;29;20216;-79
2022/01/27 11:58:21;;;;;;;2.23;1.57;;;4.50;99.90;;;;;;10002588;29;20393;-79
2022/01/27 12:04:02;;;;;;;3.23;2.50;;;4.60;99.90;;;;;;9948080;29;20531;-82
2022/01/27 12:09:30;;;;;;;3.77;2.70;;;4.60;99.90;;;;;;9977492;29;20235;-80
2022/01/27 12:15:00;;;;;;;5.13;2.83;;;4.50;99.90;;;;;;10011995;29;20201;-82
2022/01/27 12:20:43;;;;;;;2.87;2.23;;;4.60;99.90;;;;;;9990219;29;20551;-78
2022/01/27 12:26:05;;;;;;;3.63;2.50;;;4.60;99.90;;;;;;10001252;29;20275;-79
2022/01/27 12:31:27;;;;;;;3.33;2.30;;;4.60;99.90;;;;;;9987013;29;20243;-79
2022/01/27 12:37:10;;;;;;;2.90;2.30;;;4.60;99.90;;;;;;9979662;29;20388;-78
2022/01/27 12:42:37;;;;;;;3.67;2.43;;;4.70;99.90;;;;;;10000518;29;20551;-79
2022/01/27 12:48:05;;;;;;;4.20;2.93;;;4.70;99.90;;;;;;10001394;29;20240;-78
2022/01/27 12:53:30;;;;;;;4.93;3.23;;;4.70;99.90;;;;;;9973800;29;20212;-79
2022/01/27 12:58:53;;;;;;;4.70;3.07;;;4.70;99.90;;;;;;9984869;29;20213;-80
2022/01/27 13:04:26;;;;;;;5.40;3.70;;;4.70;99.90;;;;;;9976223;29;20263;-80
2022/01/27 13:10:19;;;;;;;4.47;3.30;;;4.60;99.90;;;;;;9994098;29;20228;-80
2022/01/27 13:15:42;;;;;;;4.47;3.37;;;4.70;99.90;;;;;;9986586;29;20218;-78
2022/01/27 13:21:26;;;;;;;7.10;3.77;;;4.70;99.90;;;;;;9974614;29;20516;-78
2022/01/27 13:26:49;;;;;;;6.23;4.20;;;4.80;99.90;;;;;;9968535;29;20219;-79
2022/01/27 13:32:12;;;;;;;6.60;4.10;;;4.80;99.90;;;;;;9982692;29;20255;-79
2022/01/27 13:37:37;;;;;;;6.57;4.60;;;4.80;99.90;;;;;;10004592;29;20192;-78
2022/01/27 13:43:00;;;;;;;8.60;4.77;;;4.90;99.90;;;;;;9974828;29;20484;-79
2022/01/27 13:48:23;;;;;;;6.07;3.93;;;4.90;99.90;;;;;;9994804;29;20290;-79
2022/01/27 13:53:57;;;;;;;10.57;4.73;;;4.90;99.90;;;;;;9996868;29;20254;-78
2022/01/27 13:59:27;;;;;;;10.53;4.67;;;5.00;99.90;;;;;;9986657;29;20212;-78
2022/01/27 14:04:52;;;;;;;9.20;4.60;;;5.00;99.90;;;;;;10011299;29;20554;-78
2022/01/27 14:10:37;;;;;;;5.70;4.37;;;5.00;99.90;;;;;;10013650;29;20241;-78
2022/01/27 14:15:59;;;;;;;11.80;5.00;;;4.90;99.90;;;;;;10015505;29;20293;-79
2022/01/27 14:21:25;;;;;;;12.97;4.83;;;5.10;99.90;;;;;;9991154;29;20208;-79
2022/01/27 14:27:00;;;;;;;9.73;5.10;;;5.10;99.90;;;;;;9997759;29;20213;-79
2022/01/27 14:32:22;;;;;;;10.27;4.77;;;5.20;99.90;;;;;;9980248;29;20534;-78
2022/01/27 14:37:44;;;;;;;12.47;4.40;;;5.20;99.90;;;;;;9998444;29;20236;-78
2022/01/27 14:43:07;;;;;;;16.43;5.00;;;5.30;99.90;;;;;;9976638;29;20248;-79
2022/01/27 14:48:31;;;;;;;15.10;5.23;;;5.30;99.90;;;;;;9984507;29;20229;-79
2022/01/27 14:53:53;;;;;;;11.20;4.10;;;5.20;99.90;;;;;;9984814;29;20234;-79
2022/01/27 14:59:16;;;;;;;9.93;3.60;;;5.20;99.90;;;;;;9997976;29;20279;-78
2022/01/27 15:04:38;;;;;;;11.37;3.40;;;5.10;99.90;;;;;;10000561;29;20209;-79
2022/01/27 15:10:00;;;;;;;13.53;4.20;;;5.10;99.90;;;;;;9997497;29;20240;-78
2022/01/27 15:21:04;;;;;;;15.47;4.23;;;5.20;99.90;;;;;;9984342;29;20212;-79
2022/01/27 15:26:28;;;;;;;13.90;3.83;;;5.20;99.90;;;;;;9979235;29;20212;-79
2022/01/27 15:31:50;;;;;;;12.40;3.77;;;5.20;99.90;;;;;;9977501;29;20671;-79
2022/01/27 15:37:13;;;;;;;14.70;3.50;;;5.20;99.90;;;;;;9997244;29;20209;-78
2022/01/27 15:42:35;;;;;;;14.50;3.73;;;5.20;99.90;;;;;;10002574;29;20252;-78
2022/01/27 15:48:02;;;;;;;11.87;4.37;;;5.10;99.90;;;;;;9990437;29;20235;-78
2022/01/27 15:53:23;;;;;;;17.33;4.73;;;5.20;99.90;;;;;;10002444;29;20234;-78
2022/01/27 15:58:45;;;;;;;16.20;4.33;;;5.00;99.90;;;;;;10016072;29;20294;-78
2022/01/27 16:04:09;;;;;;;19.13;5.17;;;5.00;99.90;;;;;;10002371;29;20200;-80
2022/01/27 16:09:32;;;;;;;14.23;3.97;;;5.10;99.90;;;;;;9992341;29;20260;-78
2022/01/27 16:14:55;;;;;;;12.75;3.97;;;5.10;99.90;;;;;;9989698;29;20526;-78
2022/01/27 16:20:19;;;;;;;13.53;4.10;;;5.00;99.90;;;;;;9992947;29;20209;-78
2022/01/27 16:25:41;;;;;;;25.37;5.97;;;4.90;99.90;;;;;;10007555;29;20276;-78
2022/01/27 16:31:03;;;;;;;15.30;4.47;;;4.80;99.90;;;;;;10008366;29;20234;-78
2022/01/27 16:36:29;;;;;;;16.33;3.33;;;5.00;99.90;;;;;;9992364;29;20273;-78
2022/01/27 16:41:51;;;;;;;17.97;3.80;;;5.00;99.90;;;;;;9992524;29;20551;-78
2022/01/27 16:47:13;;;;;;;15.07;3.90;;;5.00;99.90;;;;;;9991268;29;20210;-79
2022/01/27 16:52:35;;;;;;;10.43;3.27;;;5.00;99.90;;;;;;9978132;29;20274;-78
2022/01/27 16:57:57;;;;;;;21.03;4.27;;;5.00;99.90;;;;;;9993666;29;20448;-78
2022/01/27 17:03:21;;;;;;;19.87;3.80;;;5.10;99.90;;;;;;9966806;29;20205;-78
2022/01/27 17:08:43;;;;;;;20.20;3.53;;;5.10;99.90;;;;;;9980377;29;20396;-78
2022/01/27 17:14:05;;;;;;;14.37;2.73;;;5.10;99.90;;;;;;10007155;29;20203;-78
2022/01/27 17:19:27;;;;;;;20.17;3.17;;;5.20;99.90;;;;;;10004880;29;20262;-78
2022/01/27 17:24:50;;;;;;;22.33;3.60;;;5.20;99.90;;;;;;9993028;29;20208;-78
2022/01/27 17:30:14;;;;;;;18.27;3.53;;;5.20;99.90;;;;;;9991940;29;20234;-78
2022/01/27 17:35:36;;;;;;;20.33;4.27;;;5.20;99.90;;;;;;9979701;29;20205;-78
2022/01/27 17:41:00;;;;;;;13.20;3.53;;;5.30;99.90;;;;;;9970107;29;20238;-78
2022/01/27 17:46:22;;;;;;;10.70;2.53;;;5.30;99.90;;;;;;9952207;29;20203;-78
2022/01/27 17:51:46;;;;;;;15.77;2.97;;;5.20;99.90;;;;;;9967944;29;20569;-78
2022/01/27 17:57:08;;;;;;;17.07;3.47;;;5.20;99.90;;;;;;9967847;29;20487;-78
2022/01/27 18:02:29;;;;;;;16.27;3.70;;;5.10;99.90;;;;;;9967898;29;20210;-78
2022/01/27 18:07:54;;;;;;;12.90;3.60;;;5.10;99.90;;;;;;9926487;29;20301;-78
2022/01/27 18:13:17;;;;;;;20.27;3.60;;;5.10;99.90;;;;;;9951697;29;20237;-78
2022/01/27 18:18:39;;;;;;;12.80;2.67;;;5.10;99.90;;;;;;9951377;29;20515;-78
2022/01/27 18:24:01;;;;;;;15.63;3.07;;;5.10;99.90;;;;;;9972698;29;20226;-78
2022/01/27 18:29:23;;;;;;;18.17;3.13;;;5.00;99.90;;;;;;9956750;29;20300;-78
2022/01/27 18:34:45;;;;;;;14.17;3.20;;;5.10;99.90;;;;;;9936499;29;20365;-78
2022/01/27 18:40:08;;;;;;;10.70;2.50;;;5.10;99.90;;;;;;9950395;29;20241;-79
2022/01/27 18:45:31;;;;;;;16.03;3.03;;;5.10;99.90;;;;;;10003501;29;20196;-78
2022/01/27 18:50:53;;;;;;;13.70;3.20;;;5.20;99.90;;;;;;10003034;29;20607;-78
2022/01/27 18:56:15;;;;;;;22.10;3.23;;;5.20;99.90;;;;;;10003325;29;20205;-79
2022/01/27 19:01:38;;;;;;;17.20;3.50;;;5.20;99.90;;;;;;9990359;29;20204;-79
2022/01/27 19:07:00;;;;;;;9.17;2.33;;;5.20;99.90;;;;;;10009596;29;20201;-78
2022/01/27 19:12:23;;;;;;;11.93;2.70;;;5.10;99.90;;;;;;10006092;29;20229;-78
2022/01/27 19:17:45;;;;;;;13.23;2.70;;;5.10;99.90;;;;;;9997950;29;20245;-78
2022/01/27 19:23:08;;;;;;;18.23;2.87;;;5.10;99.90;;;;;;9997283;29;20209;-78
2022/01/27 19:28:32;;;;;;;10.57;2.70;;;5.00;99.90;;;;;;9982016;29;20310;-78
2022/01/27 19:33:55;;;;;;;16.70;2.73;;;4.90;99.90;;;;;;10005636;29;20209;-78
2022/01/27 19:39:17;;;;;;;14.77;2.87;;;4.90;99.90;;;;;;9981912;29;20251;-79
2022/01/27 19:44:39;;;;;;;14.10;2.70;;;4.80;99.90;;;;;;10010075;29;20200;-78
2022/01/27 19:50:04;;;;;;;17.77;3.57;;;4.70;99.90;;;;;;9995969;29;20238;-78
2022/01/27 19:55:26;;;;;;;25.63;3.90;;;4.60;99.90;;;;;;10001886;29;20205;-78
2022/01/27 20:00:50;;;;;;;18.70;2.37;;;4.60;99.90;;;;;;9995606;29;20214;-78
2022/01/27 20:06:13;;;;;;;16.90;3.10;;;4.50;99.90;;;;;;9995441;29;20205;-78
2022/01/27 20:11:35;;;;;;;13.57;2.93;;;4.60;99.90;;;;;;10003782;29;20239;-79
2022/01/27 20:16:58;;;;;;;12.03;2.70;;;4.40;99.90;;;;;;10007238;29;20391;-79
2022/01/27 20:22:20;;;;;;;11.83;2.67;;;4.40;99.90;;;;;;9994763;29;20201;-78
2022/01/27 20:27:43;;;;;;;12.80;2.83;;;4.30;99.90;;;;;;10007689;29;20201;-78
2022/01/27 20:33:05;;;;;;;20.33;3.00;;;4.40;99.90;;;;;;10006939;29;20225;-78
2022/01/27 20:38:28;;;;;;;12.73;2.80;;;4.40;99.90;;;;;;10006233;29;20272;-78
2022/01/27 20:43:50;;;;;;;16.60;3.03;;;4.40;99.90;;;;;;9956934;29;20503;-78
2022/01/27 20:49:12;;;;;;;11.63;2.63;;;4.50;99.90;;;;;;9941949;29;20539;-78
2022/01/27 20:54:33;;;;;;;18.67;2.43;;;4.50;99.90;;;;;;9954420;29;20519;-79
2022/01/27 20:59:56;;;;;;;16.87;2.80;;;4.50;99.90;;;;;;9969496;29;20212;-79
2022/01/27 21:05:30;;;;;;;18.90;4.60;;;4.40;99.90;;;;;;9924947;30;20202;-78
2022/01/27 21:10:52;;;;;;;20.37;3.60;;;4.50;99.90;;;;;;9933469;30;20229;-78
2022/01/27 21:16:15;;;;;;;19.23;3.03;;;4.40;99.90;;;;;;9918788;30;20201;-78
2022/01/27 21:21:38;;;;;;;12.63;2.77;;;4.40;99.90;;;;;;9904682;30;20282;-78
2022/01/27 21:27:01;;;;;;;19.40;3.17;;;4.40;99.90;;;;;;9932212;29;20203;-78
2022/01/27 21:32:23;;;;;;;13.67;3.17;;;4.20;99.90;;;;;;9953424;29;20396;-78
2022/01/27 21:37:47;;;;;;;11.73;2.60;;;4.10;99.90;;;;;;9968900;29;20232;-78
2022/01/27 21:43:10;;;;;;;19.03;3.33;;;4.00;99.90;;;;;;9975658;29;20266;-78
2022/01/27 21:48:32;;;;;;;11.10;2.67;;;4.00;99.90;;;;;;9977046;29;20227;-78
2022/01/27 21:53:54;;;;;;;17.00;2.50;;;4.00;99.90;;;;;;10006036;29;20253;-78
2022/01/27 21:59:28;;;;;;;20.43;2.90;;;3.90;99.90;;;;;;9988066;29;20228;-78
2022/01/27 22:04:50;;;;;;;18.80;2.90;;;3.90;99.90;;;;;;9976507;29;20500;-79
2022/01/27 22:10:12;;;;;;;9.07;2.30;;;3.90;99.90;;;;;;9991858;29;20228;-78
2022/01/27 22:15:34;;;;;;;12.20;2.43;;;3.90;99.90;;;;;;9991794;29;20203;-79
2022/01/27 22:21:05;;;;;;;10.63;2.23;;;3.80;99.90;;;;;;9977564;29;20308;-78
2022/01/27 22:26:28;;;;;;;18.37;2.47;;;3.80;99.90;;;;;;9991462;29;20201;-79
2022/01/27 22:31:52;;;;;;;8.93;2.70;;;3.70;99.90;;;;;;9962657;29;20298;-79
2022/01/27 22:37:14;;;;;;;14.73;3.00;;;3.60;99.90;;;;;;9976159;29;20225;-79
2022/01/27 22:42:36;;;;;;;14.93;3.07;;;3.60;99.90;;;;;;10004105;29;20231;-78
2022/01/27 22:48:01;;;;;;;7.10;1.83;;;3.50;99.90;;;;;;9990711;29;20245;-78
2022/01/27 22:53:24;;;;;;;7.60;2.17;;;3.50;99.90;;;;;;9991063;29;20417;-77
2022/01/27 22:58:46;;;;;;;8.10;1.90;;;3.50;99.90;;;;;;10004607;29;20435;-78
2022/01/27 23:04:08;;;;;;;9.90;2.40;;;3.40;99.90;;;;;;10003952;29;20513;-78
2022/01/27 23:09:30;;;;;;;5.03;1.50;;;3.40;99.90;;;;;;10004332;29;20592;-77
2022/01/27 23:15:12;;;;;;;5.40;1.40;;;3.30;99.90;;;;;;9966576;29;20217;-77
2022/01/27 23:20:39;;;;;;;5.93;1.60;;;3.20;99.90;;;;;;9950037;29;20212;-78
2022/01/27 23:31:36;;;;;;;4.67;1.00;;;3.20;99.90;;;;;;9952489;29;20278;-77
2022/01/27 23:37:07;;;;;;;1.93;0.67;;;3.10;99.90;;;;;;9937449;29;20258;-77
2022/01/27 23:42:59;;;;;;;4.80;1.00;;;2.90;99.90;;;;;;9937319;29;20240;-78
2022/01/27 23:48:26;;;;;;;1.40;0.70;;;2.90;99.90;;;;;;9966014;29;20217;-78
2022/01/27 23:54:20;;;;;;;2.27;0.70;;;2.70;99.90;;;;;;9987213;29;20203;-79
2022/01/27 23:59:48;;;;;;;1.80;0.83;;;2.60;99.90;;;;;;9955882;29;20213;-77
